sensor_id;sensor_type;location;lat;lon;timestamp;P1;durP1;ratioP1;P2;durP2;ratioP2
71679;SDS011;59512;42.662;23.254;2023-05-19T00:00:47;11.07;;;6.25;;
71679;SDS011;59512;42.662;23.254;2023-05-19T00:03:13;9.68;;;6.13;;
71679;SDS011;59512;42.662;23.254;2023-05-19T00:05:39;11.50;;;6.67;;
71679;SDS011;59512;42.662;23.254;2023-05-19T00:08:10;9.10;;;5.72;;
71679;SDS011;59512;42.662;23.254;2023-05-19T00:10:36;9.70;;;5.93;;
71679;SDS011;59512;42.662;23.254;2023-05-19T00:13:02;10.60;;;5.95;;
71679;SDS011;59512;42.662;23.254;2023-05-19T00:15:27;10.60;;;5.97;;
71679;SDS011;59512;42.662;23.254;2023-05-19T00:17:53;9.67;;;5.67;;
71679;SDS011;59512;42.662;23.254;2023-05-19T00:20:19;10.48;;;6.30;;
71679;SDS011;59512;42.662;23.254;2023-05-19T00:22:45;9.75;;;6.15;;
71679;SDS011;59512;42.662;23.254;2023-05-19T00:25:11;10.53;;;6.77;;
71679;SDS011;59512;42.662;23.254;2023-05-19T00:27:36;11.20;;;5.93;;
71679;SDS011;59512;42.662;23.254;2023-05-19T00:30:02;10.13;;;6.28;;
71679;SDS011;59512;42.662;23.254;2023-05-19T00:32:28;9.77;;;6.07;;
71679;SDS011;59512;42.662;23.254;2023-05-19T00:34:53;10.67;;;6.57;;
71679;SDS011;59512;42.662;23.254;2023-05-19T00:37:19;9.13;;;6.38;;
71679;SDS011;59512;42.662;23.254;2023-05-19T00:39:44;9.40;;;6.10;;
71679;SDS011;59512;42.662;23.254;2023-05-19T00:42:10;10.73;;;7.03;;
71679;SDS011;59512;42.662;23.254;2023-05-19T00:44:39;10.63;;;7.23;;
71679;SDS011;59512;42.662;23.254;2023-05-19T00:47:04;11.07;;;6.95;;
71679;SDS011;59512;42.662;23.254;2023-05-19T00:49:30;10.48;;;6.63;;
71679;SDS011;59512;42.662;23.254;2023-05-19T00:51:56;11.60;;;6.70;;
71679;SDS011;59512;42.662;23.254;2023-05-19T00:54:21;10.03;;;6.40;;
71679;SDS011;59512;42.662;23.254;2023-05-19T00:56:47;9.48;;;6.45;;
71679;SDS011;59512;42.662;23.254;2023-05-19T00:59:14;11.20;;;6.68;;
71679;SDS011;59512;42.662;23.254;2023-05-19T01:01:40;10.68;;;6.82;;
71679;SDS011;59512;42.662;23.254;2023-05-19T01:04:05;10.17;;;7.00;;
71679;SDS011;59512;42.662;23.254;2023-05-19T01:06:33;12.25;;;7.32;;
71679;SDS011;59512;42.662;23.254;2023-05-19T01:09:01;10.40;;;7.38;;
71679;SDS011;59512;42.662;23.254;2023-05-19T01:11:27;13.03;;;7.60;;
71679;SDS011;59512;42.662;23.254;2023-05-19T01:13:53;14.30;;;7.65;;
71679;SDS011;59512;42.662;23.254;2023-05-19T01:16:30;11.23;;;7.47;;
71679;SDS011;59512;42.662;23.254;2023-05-19T01:30:25;11.63;;;8.15;;
71679;SDS011;59512;42.662;23.254;2023-05-19T01:33:08;12.48;;;8.25;;
71679;SDS011;59512;42.662;23.254;2023-05-19T01:35:37;13.20;;;8.63;;
71679;SDS011;59512;42.662;23.254;2023-05-19T01:38:03;13.85;;;7.65;;
71679;SDS011;59512;42.662;23.254;2023-05-19T01:40:29;13.40;;;8.83;;
71679;SDS011;59512;42.662;23.254;2023-05-19T01:42:56;14.95;;;8.48;;
71679;SDS011;59512;42.662;23.254;2023-05-19T01:45:23;12.70;;;8.73;;
71679;SDS011;59512;42.662;23.254;2023-05-19T01:47:52;14.40;;;8.73;;
71679;SDS011;59512;42.662;23.254;2023-05-19T01:50:19;13.50;;;8.82;;
71679;SDS011;59512;42.662;23.254;2023-05-19T01:52:44;13.53;;;8.33;;
71679;SDS011;59512;42.662;23.254;2023-05-19T01:55:10;13.70;;;9.03;;
71679;SDS011;59512;42.662;23.254;2023-05-19T01:57:40;12.52;;;7.75;;
71679;SDS011;59512;42.662;23.254;2023-05-19T02:09:22;12.57;;;9.30;;
71679;SDS011;59512;42.662;23.254;2023-05-19T02:15:15;11.57;;;8.50;;
71679;SDS011;59512;42.662;23.254;2023-05-19T02:17:42;12.13;;;8.90;;
71679;SDS011;59512;42.662;23.254;2023-05-19T02:20:12;14.55;;;9.27;;
71679;SDS011;59512;42.662;23.254;2023-05-19T02:22:39;14.10;;;8.70;;
71679;SDS011;59512;42.662;23.254;2023-05-19T02:25:05;15.75;;;9.57;;
71679;SDS011;59512;42.662;23.254;2023-05-19T02:27:31;14.63;;;9.27;;
71679;SDS011;59512;42.662;23.254;2023-05-19T02:29:56;16.05;;;9.57;;
71679;SDS011;59512;42.662;23.254;2023-05-19T02:32:22;14.67;;;9.77;;
71679;SDS011;59512;42.662;23.254;2023-05-19T02:34:47;14.20;;;9.97;;
71679;SDS011;59512;42.662;23.254;2023-05-19T02:37:13;17.60;;;11.67;;
71679;SDS011;59512;42.662;23.254;2023-05-19T02:39:42;15.63;;;11.45;;
71679;SDS011;59512;42.662;23.254;2023-05-19T02:42:08;13.95;;;10.10;;
71679;SDS011;59512;42.662;23.254;2023-05-19T02:44:34;16.95;;;11.40;;
71679;SDS011;59512;42.662;23.254;2023-05-19T02:47:00;18.10;;;11.00;;
71679;SDS011;59512;42.662;23.254;2023-05-19T02:49:26;14.70;;;9.98;;
71679;SDS011;59512;42.662;23.254;2023-05-19T02:51:51;15.50;;;10.00;;
71679;SDS011;59512;42.662;23.254;2023-05-19T02:54:17;15.97;;;10.30;;
71679;SDS011;59512;42.662;23.254;2023-05-19T02:56:42;15.00;;;10.30;;
71679;SDS011;59512;42.662;23.254;2023-05-19T02:59:08;16.67;;;11.33;;
71679;SDS011;59512;42.662;23.254;2023-05-19T03:01:33;22.20;;;12.27;;
71679;SDS011;59512;42.662;23.254;2023-05-19T03:03:59;17.05;;;12.15;;
71679;SDS011;59512;42.662;23.254;2023-05-19T03:06:24;19.23;;;11.73;;
71679;SDS011;59512;42.662;23.254;2023-05-19T03:08:49;15.53;;;10.93;;
71679;SDS011;59512;42.662;23.254;2023-05-19T03:11:15;18.40;;;11.87;;
71679;SDS011;59512;42.662;23.254;2023-05-19T03:13:41;17.90;;;11.85;;
71679;SDS011;59512;42.662;23.254;2023-05-19T03:16:07;20.20;;;12.33;;
71679;SDS011;59512;42.662;23.254;2023-05-19T03:18:32;19.60;;;13.35;;
71679;SDS011;59512;42.662;23.254;2023-05-19T03:20:58;21.47;;;13.33;;
71679;SDS011;59512;42.662;23.254;2023-05-19T03:23:24;19.42;;;12.20;;
71679;SDS011;59512;42.662;23.254;2023-05-19T03:25:50;17.80;;;11.73;;
71679;SDS011;59512;42.662;23.254;2023-05-19T03:28:18;18.50;;;12.50;;
71679;SDS011;59512;42.662;23.254;2023-05-19T03:30:43;21.83;;;14.80;;
71679;SDS011;59512;42.662;23.254;2023-05-19T03:33:09;19.20;;;13.47;;
71679;SDS011;59512;42.662;23.254;2023-05-19T03:35:35;20.47;;;13.77;;
71679;SDS011;59512;42.662;23.254;2023-05-19T03:38:00;23.48;;;15.82;;
71679;SDS011;59512;42.662;23.254;2023-05-19T03:40:25;23.60;;;15.03;;
71679;SDS011;59512;42.662;23.254;2023-05-19T03:42:51;21.13;;;14.87;;
71679;SDS011;59512;42.662;23.254;2023-05-19T03:45:18;21.30;;;14.70;;
71679;SDS011;59512;42.662;23.254;2023-05-19T03:47:43;20.53;;;14.80;;
71679;SDS011;59512;42.662;23.254;2023-05-19T03:50:10;21.75;;;14.00;;
71679;SDS011;59512;42.662;23.254;2023-05-19T03:52:35;22.33;;;14.87;;
71679;SDS011;59512;42.662;23.254;2023-05-19T03:55:02;20.30;;;15.00;;
71679;SDS011;59512;42.662;23.254;2023-05-19T03:57:28;21.83;;;14.70;;
71679;SDS011;59512;42.662;23.254;2023-05-19T03:59:54;20.13;;;14.50;;
71679;SDS011;59512;42.662;23.254;2023-05-19T04:02:19;23.83;;;15.63;;
71679;SDS011;59512;42.662;23.254;2023-05-19T04:04:44;20.40;;;14.57;;
71679;SDS011;59512;42.662;23.254;2023-05-19T04:07:10;21.23;;;13.63;;
71679;SDS011;59512;42.662;23.254;2023-05-19T04:09:36;21.40;;;13.20;;
71679;SDS011;59512;42.662;23.254;2023-05-19T04:12:02;21.03;;;13.97;;
71679;SDS011;59512;42.662;23.254;2023-05-19T04:14:27;20.03;;;13.63;;
71679;SDS011;59512;42.662;23.254;2023-05-19T04:16:53;21.88;;;13.38;;
71679;SDS011;59512;42.662;23.254;2023-05-19T04:19:18;18.90;;;12.87;;
71679;SDS011;59512;42.662;23.254;2023-05-19T04:21:44;21.33;;;12.90;;
71679;SDS011;59512;42.662;23.254;2023-05-19T04:24:09;20.80;;;13.53;;
71679;SDS011;59512;42.662;23.254;2023-05-19T04:26:35;21.58;;;14.05;;
71679;SDS011;59512;42.662;23.254;2023-05-19T04:29:02;18.03;;;12.83;;
71679;SDS011;59512;42.662;23.254;2023-05-19T04:31:28;18.02;;;12.57;;
71679;SDS011;59512;42.662;23.254;2023-05-19T04:33:54;17.67;;;11.95;;
71679;SDS011;59512;42.662;23.254;2023-05-19T04:36:19;17.30;;;11.75;;
71679;SDS011;59512;42.662;23.254;2023-05-19T04:38:45;14.97;;;10.90;;
71679;SDS011;59512;42.662;23.254;2023-05-19T04:41:11;17.77;;;11.70;;
71679;SDS011;59512;42.662;23.254;2023-05-19T04:43:37;17.93;;;11.70;;
71679;SDS011;59512;42.662;23.254;2023-05-19T04:46:08;16.65;;;10.93;;
71679;SDS011;59512;42.662;23.254;2023-05-19T04:48:37;17.77;;;10.98;;
71679;SDS011;59512;42.662;23.254;2023-05-19T04:51:03;17.20;;;11.67;;
71679;SDS011;59512;42.662;23.254;2023-05-19T04:53:28;18.55;;;11.00;;
71679;SDS011;59512;42.662;23.254;2023-05-19T04:55:54;16.57;;;11.23;;
71679;SDS011;59512;42.662;23.254;2023-05-19T04:58:20;27.15;;;12.50;;
71679;SDS011;59512;42.662;23.254;2023-05-19T05:00:46;21.48;;;11.82;;
71679;SDS011;59512;42.662;23.254;2023-05-19T05:03:12;19.43;;;11.40;;
71679;SDS011;59512;42.662;23.254;2023-05-19T05:05:38;19.98;;;11.20;;
71679;SDS011;59512;42.662;23.254;2023-05-19T05:08:04;16.83;;;11.07;;
71679;SDS011;59512;42.662;23.254;2023-05-19T05:10:30;17.10;;;9.90;;
71679;SDS011;59512;42.662;23.254;2023-05-19T05:12:55;16.53;;;10.43;;
71679;SDS011;59512;42.662;23.254;2023-05-19T05:15:21;15.93;;;10.73;;
71679;SDS011;59512;42.662;23.254;2023-05-19T05:17:48;17.65;;;11.43;;
71679;SDS011;59512;42.662;23.254;2023-05-19T05:20:14;17.10;;;10.82;;
71679;SDS011;59512;42.662;23.254;2023-05-19T05:22:40;15.20;;;9.95;;
71679;SDS011;59512;42.662;23.254;2023-05-19T05:25:06;15.73;;;10.87;;
71679;SDS011;59512;42.662;23.254;2023-05-19T05:27:32;16.70;;;10.70;;
71679;SDS011;59512;42.662;23.254;2023-05-19T05:29:57;15.73;;;9.90;;
71679;SDS011;59512;42.662;23.254;2023-05-19T05:32:23;15.75;;;9.73;;
71679;SDS011;59512;42.662;23.254;2023-05-19T05:34:48;13.95;;;9.63;;
71679;SDS011;59512;42.662;23.254;2023-05-19T05:37:14;14.77;;;9.40;;
71679;SDS011;59512;42.662;23.254;2023-05-19T05:39:40;14.20;;;9.00;;
71679;SDS011;59512;42.662;23.254;2023-05-19T05:42:05;15.33;;;10.00;;
71679;SDS011;59512;42.662;23.254;2023-05-19T05:44:33;15.43;;;10.35;;
71679;SDS011;59512;42.662;23.254;2023-05-19T05:46:59;14.73;;;10.27;;
71679;SDS011;59512;42.662;23.254;2023-05-19T05:49:26;14.40;;;8.95;;
71679;SDS011;59512;42.662;23.254;2023-05-19T05:51:51;14.02;;;9.27;;
71679;SDS011;59512;42.662;23.254;2023-05-19T05:54:19;14.57;;;9.53;;
71679;SDS011;59512;42.662;23.254;2023-05-19T05:56:46;15.52;;;9.73;;
71679;SDS011;59512;42.662;23.254;2023-05-19T05:59:12;15.85;;;9.00;;
71679;SDS011;59512;42.662;23.254;2023-05-19T06:01:38;15.30;;;9.90;;
71679;SDS011;59512;42.662;23.254;2023-05-19T06:04:03;12.20;;;8.70;;
71679;SDS011;59512;42.662;23.254;2023-05-19T06:06:29;14.93;;;8.87;;
71679;SDS011;59512;42.662;23.254;2023-05-19T06:08:55;12.15;;;8.35;;
71679;SDS011;59512;42.662;23.254;2023-05-19T06:11:20;14.32;;;8.55;;
71679;SDS011;59512;42.662;23.254;2023-05-19T06:13:46;12.50;;;8.30;;
71679;SDS011;59512;42.662;23.254;2023-05-19T06:16:11;12.10;;;7.80;;
71679;SDS011;59512;42.662;23.254;2023-05-19T06:18:37;14.00;;;8.02;;
71679;SDS011;59512;42.662;23.254;2023-05-19T06:21:02;12.13;;;7.87;;
71679;SDS011;59512;42.662;23.254;2023-05-19T06:23:29;20.57;;;8.13;;
71679;SDS011;59512;42.662;23.254;2023-05-19T06:25:54;12.38;;;7.20;;
71679;SDS011;59512;42.662;23.254;2023-05-19T06:28:20;11.48;;;7.72;;
71679;SDS011;59512;42.662;23.254;2023-05-19T06:30:46;13.73;;;7.72;;
71679;SDS011;59512;42.662;23.254;2023-05-19T06:33:11;12.00;;;6.87;;
71679;SDS011;59512;42.662;23.254;2023-05-19T06:35:37;11.53;;;6.63;;
71679;SDS011;59512;42.662;23.254;2023-05-19T06:38:02;12.05;;;6.20;;
71679;SDS011;59512;42.662;23.254;2023-05-19T06:40:28;10.38;;;6.47;;
71679;SDS011;59512;42.662;23.254;2023-05-19T06:42:53;11.33;;;6.53;;
71679;SDS011;59512;42.662;23.254;2023-05-19T06:45:18;13.03;;;7.10;;
71679;SDS011;59512;42.662;23.254;2023-05-19T06:47:46;12.68;;;7.43;;
71679;SDS011;59512;42.662;23.254;2023-05-19T06:50:12;12.25;;;7.15;;
71679;SDS011;59512;42.662;23.254;2023-05-19T06:52:37;15.53;;;7.43;;
71679;SDS011;59512;42.662;23.254;2023-05-19T06:55:03;10.90;;;6.80;;
71679;SDS011;59512;42.662;23.254;2023-05-19T06:57:29;12.18;;;7.25;;
71679;SDS011;59512;42.662;23.254;2023-05-19T06:59:54;11.33;;;6.90;;
71679;SDS011;59512;42.662;23.254;2023-05-19T07:02:20;11.73;;;6.37;;
71679;SDS011;59512;42.662;23.254;2023-05-19T07:04:45;11.63;;;6.57;;
71679;SDS011;59512;42.662;23.254;2023-05-19T07:07:11;10.63;;;5.90;;
71679;SDS011;59512;42.662;23.254;2023-05-19T07:09:36;9.63;;;6.30;;
71679;SDS011;59512;42.662;23.254;2023-05-19T07:12:02;11.73;;;6.70;;
71679;SDS011;59512;42.662;23.254;2023-05-19T07:14:27;12.53;;;6.63;;
71679;SDS011;59512;42.662;23.254;2023-05-19T07:16:53;12.63;;;7.13;;
71679;SDS011;59512;42.662;23.254;2023-05-19T07:19:18;10.98;;;7.07;;
71679;SDS011;59512;42.662;23.254;2023-05-19T07:21:44;12.20;;;7.30;;
71679;SDS011;59512;42.662;23.254;2023-05-19T07:24:10;10.68;;;6.53;;
71679;SDS011;59512;42.662;23.254;2023-05-19T07:26:35;12.23;;;6.83;;
71679;SDS011;59512;42.662;23.254;2023-05-19T07:29:01;10.13;;;7.07;;
71679;SDS011;59512;42.662;23.254;2023-05-19T07:31:26;13.00;;;6.93;;
71679;SDS011;59512;42.662;23.254;2023-05-19T07:33:52;10.00;;;6.37;;
71679;SDS011;59512;42.662;23.254;2023-05-19T07:36:17;12.63;;;7.27;;
71679;SDS011;59512;42.662;23.254;2023-05-19T07:38:42;10.63;;;7.27;;
71679;SDS011;59512;42.662;23.254;2023-05-19T07:41:10;15.45;;;7.38;;
71679;SDS011;59512;42.662;23.254;2023-05-19T07:43:36;15.37;;;8.43;;
71679;SDS011;59512;42.662;23.254;2023-05-19T07:46:01;12.97;;;7.67;;
71679;SDS011;59512;42.662;23.254;2023-05-19T07:48:27;14.38;;;7.80;;
71679;SDS011;59512;42.662;23.254;2023-05-19T07:50:52;14.30;;;7.67;;
71679;SDS011;59512;42.662;23.254;2023-05-19T07:53:18;12.23;;;7.27;;
71679;SDS011;59512;42.662;23.254;2023-05-19T07:55:44;13.93;;;8.27;;
71679;SDS011;59512;42.662;23.254;2023-05-19T07:58:09;13.63;;;8.20;;
71679;SDS011;59512;42.662;23.254;2023-05-19T08:00:35;13.33;;;8.30;;
71679;SDS011;59512;42.662;23.254;2023-05-19T08:03:01;13.60;;;8.35;;
71679;SDS011;59512;42.662;23.254;2023-05-19T08:05:27;12.50;;;7.87;;
71679;SDS011;59512;42.662;23.254;2023-05-19T08:07:54;13.43;;;8.25;;
71679;SDS011;59512;42.662;23.254;2023-05-19T08:10:20;14.07;;;9.15;;
71679;SDS011;59512;42.662;23.254;2023-05-19T08:12:46;20.20;;;9.13;;
71679;SDS011;59512;42.662;23.254;2023-05-19T08:15:11;15.97;;;9.47;;
71679;SDS011;59512;42.662;23.254;2023-05-19T08:17:36;18.05;;;9.85;;
71679;SDS011;59512;42.662;23.254;2023-05-19T08:20:02;14.02;;;9.57;;
71679;SDS011;59512;42.662;23.254;2023-05-19T08:22:30;14.40;;;9.80;;
71679;SDS011;59512;42.662;23.254;2023-05-19T08:24:55;13.32;;;9.50;;
71679;SDS011;59512;42.662;23.254;2023-05-19T08:27:22;16.95;;;9.90;;
71679;SDS011;59512;42.662;23.254;2023-05-19T08:29:47;16.87;;;9.63;;
71679;SDS011;59512;42.662;23.254;2023-05-19T08:32:13;15.45;;;9.45;;
71679;SDS011;59512;42.662;23.254;2023-05-19T08:34:38;15.10;;;9.90;;
71679;SDS011;59512;42.662;23.254;2023-05-19T08:37:05;16.93;;;9.93;;
71679;SDS011;59512;42.662;23.254;2023-05-19T08:39:31;14.25;;;9.45;;
71679;SDS011;59512;42.662;23.254;2023-05-19T08:41:58;18.65;;;10.02;;
71679;SDS011;59512;42.662;23.254;2023-05-19T08:44:23;16.70;;;9.65;;
71679;SDS011;59512;42.662;23.254;2023-05-19T08:46:49;18.97;;;10.33;;
71679;SDS011;59512;42.662;23.254;2023-05-19T08:49:17;16.90;;;9.80;;
71679;SDS011;59512;42.662;23.254;2023-05-19T08:54:36;17.35;;;9.32;;
71679;SDS011;59512;42.662;23.254;2023-05-19T08:57:07;14.80;;;9.45;;
71679;SDS011;59512;42.662;23.254;2023-05-19T08:59:33;16.20;;;9.50;;
71679;SDS011;59512;42.662;23.254;2023-05-19T09:01:59;15.60;;;10.03;;
71679;SDS011;59512;42.662;23.254;2023-05-19T09:04:25;15.18;;;9.82;;
71679;SDS011;59512;42.662;23.254;2023-05-19T09:06:52;18.63;;;9.87;;
71679;SDS011;59512;42.662;23.254;2023-05-19T09:09:17;14.68;;;10.63;;
71679;SDS011;59512;42.662;23.254;2023-05-19T09:11:46;17.30;;;9.77;;
71679;SDS011;59512;42.662;23.254;2023-05-19T09:14:11;17.20;;;10.13;;
71679;SDS011;59512;42.662;23.254;2023-05-19T09:16:36;13.60;;;10.03;;
71679;SDS011;59512;42.662;23.254;2023-05-19T09:19:03;14.98;;;10.32;;
71679;SDS011;59512;42.662;23.254;2023-05-19T09:21:31;18.80;;;10.33;;
71679;SDS011;59512;42.662;23.254;2023-05-19T09:23:57;16.40;;;10.20;;
71679;SDS011;59512;42.662;23.254;2023-05-19T09:26:37;14.82;;;9.85;;
71679;SDS011;59512;42.662;23.254;2023-05-19T09:29:11;14.85;;;10.68;;
71679;SDS011;59512;42.662;23.254;2023-05-19T09:31:46;15.43;;;10.37;;
71679;SDS011;59512;42.662;23.254;2023-05-19T09:34:14;16.33;;;9.85;;
71679;SDS011;59512;42.662;23.254;2023-05-19T09:36:39;16.38;;;10.38;;
71679;SDS011;59512;42.662;23.254;2023-05-19T09:39:13;17.67;;;10.20;;
71679;SDS011;59512;42.662;23.254;2023-05-19T09:41:41;16.53;;;10.13;;
71679;SDS011;59512;42.662;23.254;2023-05-19T09:44:11;16.70;;;10.35;;
71679;SDS011;59512;42.662;23.254;2023-05-19T09:46:53;14.38;;;9.45;;
71679;SDS011;59512;42.662;23.254;2023-05-19T09:51:49;17.40;;;10.57;;
71679;SDS011;59512;42.662;23.254;2023-05-19T09:54:18;15.48;;;11.05;;
71679;SDS011;59512;42.662;23.254;2023-05-19T09:56:44;18.45;;;10.10;;
71679;SDS011;59512;42.662;23.254;2023-05-19T09:59:09;19.37;;;10.77;;
71679;SDS011;59512;42.662;23.254;2023-05-19T10:01:35;14.63;;;10.00;;
71679;SDS011;59512;42.662;23.254;2023-05-19T10:04:04;16.83;;;10.35;;
71679;SDS011;59512;42.662;23.254;2023-05-19T10:06:29;16.38;;;10.25;;
71679;SDS011;59512;42.662;23.254;2023-05-19T10:08:55;15.32;;;10.05;;
71679;SDS011;59512;42.662;23.254;2023-05-19T10:11:21;15.97;;;10.07;;
71679;SDS011;59512;42.662;23.254;2023-05-19T10:13:47;16.35;;;10.20;;
71679;SDS011;59512;42.662;23.254;2023-05-19T10:16:14;14.38;;;9.95;;
71679;SDS011;59512;42.662;23.254;2023-05-19T10:18:40;16.40;;;10.27;;
71679;SDS011;59512;42.662;23.254;2023-05-19T10:21:06;14.53;;;9.93;;
71679;SDS011;59512;42.662;23.254;2023-05-19T10:23:32;20.13;;;10.45;;
71679;SDS011;59512;42.662;23.254;2023-05-19T10:25:58;16.38;;;10.27;;
71679;SDS011;59512;42.662;23.254;2023-05-19T10:28:25;20.60;;;10.50;;
71679;SDS011;59512;42.662;23.254;2023-05-19T10:30:56;15.05;;;9.98;;
71679;SDS011;59512;42.662;23.254;2023-05-19T10:33:28;17.05;;;9.57;;
71679;SDS011;59512;42.662;23.254;2023-05-19T10:36:08;13.48;;;9.48;;
71679;SDS011;59512;42.662;23.254;2023-05-19T10:39:03;15.33;;;9.47;;
71679;SDS011;59512;42.662;23.254;2023-05-19T10:41:37;16.15;;;9.80;;
71679;SDS011;59512;42.662;23.254;2023-05-19T10:44:27;15.38;;;9.57;;
71679;SDS011;59512;42.662;23.254;2023-05-19T10:46:59;18.98;;;10.70;;
71679;SDS011;59512;42.662;23.254;2023-05-19T10:49:24;15.20;;;9.93;;
71679;SDS011;59512;42.662;23.254;2023-05-19T10:51:56;15.47;;;9.63;;
71679;SDS011;59512;42.662;23.254;2023-05-19T10:54:40;13.80;;;9.30;;
71679;SDS011;59512;42.662;23.254;2023-05-19T10:57:07;18.52;;;9.55;;
71679;SDS011;59512;42.662;23.254;2023-05-19T10:59:35;15.80;;;9.98;;
71679;SDS011;59512;42.662;23.254;2023-05-19T11:02:03;13.67;;;9.07;;
71679;SDS011;59512;42.662;23.254;2023-05-19T11:04:45;13.93;;;9.35;;
71679;SDS011;59512;42.662;23.254;2023-05-19T11:07:18;15.00;;;9.40;;
71679;SDS011;59512;42.662;23.254;2023-05-19T11:09:51;14.15;;;9.15;;
71679;SDS011;59512;42.662;23.254;2023-05-19T11:12:20;14.40;;;9.73;;
71679;SDS011;59512;42.662;23.254;2023-05-19T11:14:46;15.10;;;8.97;;
71679;SDS011;59512;42.662;23.254;2023-05-19T11:17:15;13.07;;;9.27;;
71679;SDS011;59512;42.662;23.254;2023-05-19T11:19:50;15.18;;;9.30;;
71679;SDS011;59512;42.662;23.254;2023-05-19T11:22:21;16.20;;;9.90;;
71679;SDS011;59512;42.662;23.254;2023-05-19T11:24:49;15.80;;;9.63;;
71679;SDS011;59512;42.662;23.254;2023-05-19T11:27:17;14.82;;;9.65;;
71679;SDS011;59512;42.662;23.254;2023-05-19T11:29:44;15.75;;;10.07;;
71679;SDS011;59512;42.662;23.254;2023-05-19T11:32:09;13.67;;;9.27;;
71679;SDS011;59512;42.662;23.254;2023-05-19T11:34:35;15.68;;;9.55;;
71679;SDS011;59512;42.662;23.254;2023-05-19T11:37:02;18.55;;;9.48;;
71679;SDS011;59512;42.662;23.254;2023-05-19T11:39:28;17.83;;;10.20;;
71679;SDS011;59512;42.662;23.254;2023-05-19T11:41:55;18.25;;;9.80;;
71679;SDS011;59512;42.662;23.254;2023-05-19T11:44:20;16.70;;;9.70;;
71679;SDS011;59512;42.662;23.254;2023-05-19T11:46:46;15.40;;;9.45;;
71679;SDS011;59512;42.662;23.254;2023-05-19T11:49:11;15.40;;;10.00;;
71679;SDS011;59512;42.662;23.254;2023-05-19T11:51:37;17.20;;;9.73;;
71679;SDS011;59512;42.662;23.254;2023-05-19T11:54:03;15.32;;;9.20;;
71679;SDS011;59512;42.662;23.254;2023-05-19T11:56:38;13.53;;;8.80;;
71679;SDS011;59512;42.662;23.254;2023-05-19T11:59:04;13.73;;;8.90;;
71679;SDS011;59512;42.662;23.254;2023-05-19T12:01:29;15.97;;;9.60;;
71679;SDS011;59512;42.662;23.254;2023-05-19T12:03:55;17.63;;;9.13;;
71679;SDS011;59512;42.662;23.254;2023-05-19T12:06:21;15.37;;;9.83;;
71679;SDS011;59512;42.662;23.254;2023-05-19T12:08:49;15.23;;;10.57;;
71679;SDS011;59512;42.662;23.254;2023-05-19T12:11:15;16.67;;;9.68;;
71679;SDS011;59512;42.662;23.254;2023-05-19T12:13:40;12.80;;;8.90;;
71679;SDS011;59512;42.662;23.254;2023-05-19T12:16:07;15.53;;;9.30;;
71679;SDS011;59512;42.662;23.254;2023-05-19T12:18:35;12.35;;;8.13;;
71679;SDS011;59512;42.662;23.254;2023-05-19T12:21:01;12.23;;;7.78;;
71679;SDS011;59512;42.662;23.254;2023-05-19T12:23:27;13.47;;;7.43;;
71679;SDS011;59512;42.662;23.254;2023-05-19T12:25:55;12.27;;;7.30;;
71679;SDS011;59512;42.662;23.254;2023-05-19T12:28:23;12.30;;;7.38;;
71679;SDS011;59512;42.662;23.254;2023-05-19T12:30:49;12.20;;;8.10;;
71679;SDS011;59512;42.662;23.254;2023-05-19T12:33:16;12.07;;;7.93;;
71679;SDS011;59512;42.662;23.254;2023-05-19T12:35:44;15.35;;;8.52;;
71679;SDS011;59512;42.662;23.254;2023-05-19T12:38:10;15.70;;;8.27;;
71679;SDS011;59512;42.662;23.254;2023-05-19T12:40:36;13.85;;;8.75;;
71679;SDS011;59512;42.662;23.254;2023-05-19T12:43:03;12.57;;;8.48;;
71679;SDS011;59512;42.662;23.254;2023-05-19T12:45:32;12.70;;;7.88;;
71679;SDS011;59512;42.662;23.254;2023-05-19T12:48:01;12.37;;;7.63;;
71679;SDS011;59512;42.662;23.254;2023-05-19T12:50:30;12.35;;;8.00;;
71679;SDS011;59512;42.662;23.254;2023-05-19T12:52:56;11.38;;;7.20;;
71679;SDS011;59512;42.662;23.254;2023-05-19T12:55:23;10.82;;;6.68;;
71679;SDS011;59512;42.662;23.254;2023-05-19T12:57:49;11.63;;;6.63;;
71679;SDS011;59512;42.662;23.254;2023-05-19T13:00:19;10.50;;;6.97;;
71679;SDS011;59512;42.662;23.254;2023-05-19T13:03:01;10.45;;;6.35;;
71679;SDS011;59512;42.662;23.254;2023-05-19T13:05:31;9.75;;;6.68;;
71679;SDS011;59512;42.662;23.254;2023-05-19T13:10:33;13.40;;;8.13;;
71679;SDS011;59512;42.662;23.254;2023-05-19T13:13:00;12.50;;;7.57;;
71679;SDS011;59512;42.662;23.254;2023-05-19T13:15:27;11.40;;;6.35;;
71679;SDS011;59512;42.662;23.254;2023-05-19T13:17:55;11.57;;;6.93;;
71679;SDS011;59512;42.662;23.254;2023-05-19T13:20:21;10.75;;;6.68;;
71679;SDS011;59512;42.662;23.254;2023-05-19T13:22:47;15.37;;;7.03;;
71679;SDS011;59512;42.662;23.254;2023-05-19T13:25:12;12.45;;;7.25;;
71679;SDS011;59512;42.662;23.254;2023-05-19T13:27:38;13.97;;;6.90;;
71679;SDS011;59512;42.662;23.254;2023-05-19T13:30:04;11.52;;;6.50;;
71679;SDS011;59512;42.662;23.254;2023-05-19T13:32:31;11.05;;;6.50;;
71679;SDS011;59512;42.662;23.254;2023-05-19T13:34:56;11.07;;;7.00;;
71679;SDS011;59512;42.662;23.254;2023-05-19T13:37:22;10.85;;;7.38;;
71679;SDS011;59512;42.662;23.254;2023-05-19T13:39:48;11.27;;;7.10;;
71679;SDS011;59512;42.662;23.254;2023-05-19T13:42:13;11.93;;;7.93;;
71679;SDS011;59512;42.662;23.254;2023-05-19T13:44:40;12.50;;;7.80;;
71679;SDS011;59512;42.662;23.254;2023-05-19T13:47:05;13.48;;;7.72;;
71679;SDS011;59512;42.662;23.254;2023-05-19T13:49:31;11.20;;;7.70;;
71679;SDS011;59512;42.662;23.254;2023-05-19T13:51:56;14.83;;;8.20;;
71679;SDS011;59512;42.662;23.254;2023-05-19T13:54:24;12.10;;;7.70;;
71679;SDS011;59512;42.662;23.254;2023-05-19T13:56:51;13.73;;;8.32;;
71679;SDS011;59512;42.662;23.254;2023-05-19T13:59:17;13.87;;;8.37;;
71679;SDS011;59512;42.662;23.254;2023-05-19T14:01:42;12.47;;;8.50;;
71679;SDS011;59512;42.662;23.254;2023-05-19T14:04:08;14.30;;;8.23;;
71679;SDS011;59512;42.662;23.254;2023-05-19T14:06:34;13.50;;;8.00;;
71679;SDS011;59512;42.662;23.254;2023-05-19T14:09:01;16.08;;;8.85;;
71679;SDS011;59512;42.662;23.254;2023-05-19T14:11:26;15.47;;;8.50;;
71679;SDS011;59512;42.662;23.254;2023-05-19T14:13:52;12.87;;;8.17;;
71679;SDS011;59512;42.662;23.254;2023-05-19T14:16:17;14.50;;;9.25;;
71679;SDS011;59512;42.662;23.254;2023-05-19T14:18:44;15.03;;;8.50;;
71679;SDS011;59512;42.662;23.254;2023-05-19T14:21:09;14.45;;;8.95;;
71679;SDS011;59512;42.662;23.254;2023-05-19T14:23:36;11.55;;;8.20;;
71679;SDS011;59512;42.662;23.254;2023-05-19T14:26:01;13.47;;;8.43;;
71679;SDS011;59512;42.662;23.254;2023-05-19T14:28:27;12.93;;;8.10;;
71679;SDS011;59512;42.662;23.254;2023-05-19T14:30:52;12.90;;;8.17;;
71679;SDS011;59512;42.662;23.254;2023-05-19T14:33:17;13.30;;;8.40;;
71679;SDS011;59512;42.662;23.254;2023-05-19T14:35:44;15.80;;;8.60;;
71679;SDS011;59512;42.662;23.254;2023-05-19T14:38:09;13.53;;;8.50;;
71679;SDS011;59512;42.662;23.254;2023-05-19T14:40:36;13.65;;;8.07;;
71679;SDS011;59512;42.662;23.254;2023-05-19T14:43:02;15.65;;;8.93;;
71679;SDS011;59512;42.662;23.254;2023-05-19T14:45:28;14.20;;;9.20;;
71679;SDS011;59512;42.662;23.254;2023-05-19T14:47:53;13.00;;;8.10;;